Time;durP1;ratioP1;P1;durP2;ratioP2;P2;SDS_P1;SDS_P2;PMS_P1;PMS_P2;Temp;Humidity;BMP_temperature;BMP_pressure;BME280_temperature;BME280_humidity;BME280_pressure;Samples;Min_cycle;Max_cycle;Signal;HPM_P1;HPM_P2
2021/05/09 00:02:23;;;;;;;2.90;2.60;;;8.10;99.90;;;;;;5052067;28;20283;-74
2021/05/09 00:04:48;;;;;;;4.37;2.50;;;8.10;99.90;;;;;;5052236;28;20187;-73
2021/05/09 00:07:14;;;;;;;2.87;2.70;;;8.00;99.90;;;;;;5051823;28;20489;-72
2021/05/09 00:09:40;;;;;;;3.47;2.50;;;8.00;99.90;;;;;;5051968;28;20192;-72
2021/05/09 00:12:08;;;;;;;6.00;2.90;;;8.00;99.90;;;;;;5051965;28;20451;-74
2021/05/09 00:14:33;;;;;;;2.80;2.50;;;8.00;99.90;;;;;;5048011;28;20180;-74
2021/05/09 00:16:59;;;;;;;2.57;2.47;;;7.90;99.90;;;;;;5051462;28;20417;-72
2021/05/09 00:19:25;;;;;;;2.63;2.43;;;7.90;99.90;;;;;;5051852;28;20188;-73
2021/05/09 00:21:50;;;;;;;3.00;2.80;;;7.80;99.90;;;;;;5051456;28;20701;-72
2021/05/09 00:24:16;;;;;;;4.90;3.30;;;7.80;99.90;;;;;;5051942;28;20188;-72
2021/05/09 00:26:41;;;;;;;7.53;3.47;;;7.90;99.90;;;;;;5051151;28;20213;-73
2021/05/09 00:29:07;;;;;;;3.23;2.93;;;7.90;99.90;;;;;;5051987;28;20180;-75
2021/05/09 00:31:32;;;;;;;3.43;3.10;;;7.90;99.90;;;;;;5051318;28;20209;-73
2021/05/09 00:33:58;;;;;;;3.60;2.63;;;7.90;99.90;;;;;;5051930;28;20202;-72
2021/05/09 00:36:26;;;;;;;3.93;3.53;;;7.90;99.90;;;;;;5050964;28;20644;-73
2021/05/09 00:38:52;;;;;;;4.13;3.77;;;7.90;99.90;;;;;;5051750;28;20274;-72
2021/05/09 00:41:17;;;;;;;4.00;3.23;;;7.90;99.90;;;;;;5050825;28;20992;-73
2021/05/09 00:43:43;;;;;;;3.40;3.10;;;7.90;99.90;;;;;;5051364;28;20182;-71
2021/05/09 00:46:08;;;;;;;4.57;3.27;;;7.90;99.90;;;;;;5050892;28;20181;-73
2021/05/09 00:48:34;;;;;;;3.83;3.43;;;7.80;99.90;;;;;;5051240;28;20211;-73
2021/05/09 00:51:00;;;;;;;4.57;3.67;;;7.90;99.90;;;;;;5050834;28;20167;-73
2021/05/09 00:53:27;;;;;;;3.20;2.90;;;7.90;99.90;;;;;;5050897;28;20500;-73
2021/05/09 00:55:54;;;;;;;4.40;4.00;;;7.90;99.90;;;;;;5051244;28;20653;-73
2021/05/09 00:58:20;;;;;;;7.87;3.20;;;7.90;99.90;;;;;;5050847;28;20925;-73
2021/05/09 01:00:46;;;;;;;6.87;4.37;;;7.90;99.90;;;;;;5051302;28;20427;-72
2021/05/09 01:03:14;;;;;;;3.20;2.97;;;7.90;99.90;;;;;;5051444;28;20286;-72
2021/05/09 01:05:40;;;;;;;5.30;3.50;;;7.90;99.90;;;;;;5050224;28;20444;-73
2021/05/09 01:08:05;;;;;;;3.80;3.50;;;7.80;99.90;;;;;;5050862;28;20465;-72
2021/05/09 01:10:31;;;;;;;5.20;3.83;;;7.80;99.90;;;;;;5050201;28;20256;-74
2021/05/09 01:12:57;;;;;;;5.30;3.40;;;7.80;99.90;;;;;;5050604;28;20210;-72
2021/05/09 01:15:24;;;;;;;4.73;3.60;;;7.80;99.90;;;;;;5050549;28;20934;-69
2021/05/09 01:17:50;;;;;;;4.00;3.67;;;7.80;99.90;;;;;;5050873;28;20186;-72
2021/05/09 01:20:16;;;;;;;7.97;4.27;;;7.80;99.90;;;;;;5050874;28;20417;-72
2021/05/09 01:22:42;;;;;;;3.60;3.30;;;7.90;99.90;;;;;;5050428;28;20837;-73
2021/05/09 01:25:09;;;;;;;3.47;3.03;;;7.90;99.90;;;;;;5050810;28;20262;-73
2021/05/09 01:27:36;;;;;;;4.20;3.80;;;7.80;99.90;;;;;;5050160;28;20499;-73
2021/05/09 01:30:02;;;;;;;4.57;3.80;;;7.80;99.90;;;;;;5050736;28;20477;-73
2021/05/09 01:32:27;;;;;;;3.43;3.13;;;7.80;99.90;;;;;;5050047;28;20447;-73
2021/05/09 01:34:53;;;;;;;7.33;5.30;;;7.80;99.90;;;;;;5050638;28;20439;-73
2021/05/09 01:37:18;;;;;;;8.40;4.60;;;7.80;99.90;;;;;;5050079;28;20180;-73
2021/05/09 01:39:45;;;;;;;6.90;5.70;;;7.80;99.90;;;;;;5050406;28;20273;-73
2021/05/09 01:42:10;;;;;;;3.70;3.40;;;7.80;99.90;;;;;;5050217;28;20201;-72
2021/05/09 01:44:36;;;;;;;4.30;3.90;;;7.80;99.90;;;;;;5032946;28;20528;-73
2021/05/09 01:47:02;;;;;;;3.80;3.50;;;7.80;99.90;;;;;;5045889;28;20239;-73
2021/05/09 01:49:27;;;;;;;4.10;3.73;;;7.70;99.90;;;;;;5050312;28;20179;-73
2021/05/09 01:51:54;;;;;;;5.10;3.50;;;7.70;99.90;;;;;;5051331;28;20289;-73
2021/05/09 01:54:20;;;;;;;5.00;4.00;;;7.70;99.90;;;;;;5054510;28;20517;-72
2021/05/09 01:56:46;;;;;;;4.03;3.73;;;7.70;99.90;;;;;;5054127;28;20433;-72
2021/05/09 01:59:12;;;;;;;3.60;3.30;;;7.70;99.90;;;;;;5054487;28;20605;-73
2021/05/09 02:01:37;;;;;;;3.67;3.47;;;7.70;99.90;;;;;;5054104;28;20787;-73
2021/05/09 02:04:03;;;;;;;4.03;3.63;;;7.70;99.90;;;;;;5054583;28;20419;-73
2021/05/09 02:06:29;;;;;;;5.70;4.33;;;7.70;99.90;;;;;;5053723;28;20214;-72
2021/05/09 02:08:55;;;;;;;4.27;3.97;;;7.70;99.90;;;;;;5054222;28;20509;-74
2021/05/09 02:11:20;;;;;;;4.23;3.83;;;7.70;99.90;;;;;;5053970;28;20270;-72
2021/05/09 02:13:46;;;;;;;4.17;3.47;;;7.60;99.90;;;;;;5054402;28;20651;-72
2021/05/09 02:16:11;;;;;;;5.53;3.70;;;7.70;99.90;;;;;;5053647;28;20263;-73
2021/05/09 02:18:37;;;;;;;4.57;3.60;;;7.70;99.90;;;;;;5053845;28;20188;-73
2021/05/09 02:21:03;;;;;;;4.10;3.80;;;7.60;99.90;;;;;;5053992;28;20178;-73
2021/05/09 02:23:29;;;;;;;4.40;4.00;;;7.70;99.90;;;;;;5053785;28;20205;-73
2021/05/09 02:25:55;;;;;;;4.00;3.60;;;7.70;99.90;;;;;;5053825;28;20854;-73
2021/05/09 02:28:20;;;;;;;5.50;4.00;;;7.70;99.90;;;;;;5053678;28;20805;-73
2021/05/09 02:30:46;;;;;;;3.97;3.30;;;7.70;99.90;;;;;;5053838;28;20191;-72
2021/05/09 02:33:14;;;;;;;7.30;4.10;;;7.70;99.90;;;;;;5053666;28;20234;-72
2021/05/09 02:35:40;;;;;;;6.13;4.40;;;7.70;99.90;;;;;;5053348;28;20192;-72
2021/05/09 02:38:06;;;;;;;3.70;3.40;;;7.70;99.90;;;;;;5053656;28;20430;-73
2021/05/09 02:40:32;;;;;;;4.33;3.93;;;7.70;99.90;;;;;;5053544;28;20222;-73
2021/05/09 02:42:57;;;;;;;3.70;3.40;;;7.60;99.90;;;;;;5035505;28;20451;-73
2021/05/09 02:45:23;;;;;;;4.47;3.77;;;7.60;99.90;;;;;;5053204;28;20181;-69
2021/05/09 02:47:48;;;;;;;3.77;3.47;;;7.60;99.90;;;;;;5053483;28;20208;-73
2021/05/09 02:50:14;;;;;;;3.90;3.50;;;7.70;99.90;;;;;;5053315;28;20175;-73
2021/05/09 02:52:40;;;;;;;5.43;4.00;;;7.70;99.90;;;;;;5053271;28;20223;-74
2021/05/09 02:55:06;;;;;;;4.40;3.90;;;7.70;99.90;;;;;;5053367;28;20551;-72
2021/05/09 02:57:32;;;;;;;4.40;4.00;;;7.70;99.90;;;;;;5053034;28;20184;-73
2021/05/09 02:59:57;;;;;;;3.10;2.90;;;7.70;99.90;;;;;;5053144;28;20426;-73
2021/05/09 03:02:23;;;;;;;3.70;3.40;;;7.70;99.90;;;;;;5053016;28;20198;-73
2021/05/09 03:04:48;;;;;;;3.07;2.83;;;7.70;99.90;;;;;;5035349;28;20753;-74
2021/05/09 03:07:14;;;;;;;4.67;3.30;;;7.70;99.90;;;;;;5052850;28;20206;-73
2021/05/09 03:09:39;;;;;;;2.90;2.70;;;7.70;99.90;;;;;;5052671;28;20188;-73
2021/05/09 03:12:06;;;;;;;3.70;3.40;;;7.80;99.90;;;;;;5053293;28;20203;-73
2021/05/09 03:14:32;;;;;;;4.50;3.33;;;7.80;99.90;;;;;;5052471;28;20180;-73
2021/05/09 03:16:57;;;;;;;5.40;3.30;;;7.80;99.90;;;;;;5052925;28;20515;-73
2021/05/09 03:19:22;;;;;;;3.93;3.30;;;7.80;99.90;;;;;;5052638;28;20553;-72
2021/05/09 03:21:48;;;;;;;3.60;3.30;;;7.80;99.90;;;;;;5052868;28;20211;-73
2021/05/09 03:24:13;;;;;;;4.70;3.10;;;7.80;99.90;;;;;;5052875;28;20189;-73
2021/05/09 03:26:39;;;;;;;3.27;3.07;;;7.80;99.90;;;;;;5052292;28;20193;-73
2021/05/09 03:29:05;;;;;;;3.40;3.10;;;7.80;99.90;;;;;;5052864;28;20186;-73
2021/05/09 03:31:32;;;;;;;3.77;3.10;;;7.80;99.90;;;;;;5052418;28;20204;-73
2021/05/09 03:33:58;;;;;;;5.60;3.27;;;7.80;99.90;;;;;;5052638;28;21054;-72
2021/05/09 03:36:24;;;;;;;6.73;3.60;;;7.80;99.90;;;;;;5052176;28;20922;-72
2021/05/09 03:38:49;;;;;;;3.77;3.30;;;7.80;99.90;;;;;;5052689;28;20285;-72
2021/05/09 03:41:15;;;;;;;3.67;3.37;;;7.80;99.90;;;;;;5052137;28;20438;-73
2021/05/09 03:43:40;;;;;;;3.53;3.23;;;7.80;99.90;;;;;;5052669;28;20186;-73
2021/05/09 03:46:06;;;;;;;3.27;2.67;;;7.90;99.90;;;;;;5052419;28;20205;-73
2021/05/09 03:48:31;;;;;;;7.40;3.17;;;7.90;99.90;;;;;;5051983;28;20566;-73
2021/05/09 03:50:57;;;;;;;3.73;3.53;;;7.90;99.90;;;;;;5052586;28;20675;-74
2021/05/09 03:53:24;;;;;;;3.30;3.00;;;7.90;99.90;;;;;;5052094;28;20803;-73
2021/05/09 03:55:49;;;;;;;4.20;2.60;;;7.90;99.90;;;;;;5052028;28;20174;-72
2021/05/09 03:58:15;;;;;;;3.43;3.23;;;7.90;99.90;;;;;;5052184;28;20437;-73
2021/05/09 04:00:40;;;;;;;3.20;2.90;;;7.90;99.90;;;;;;5052151;28;20682;-72
2021/05/09 04:03:23;;;;;;;4.33;3.20;;;7.80;99.90;;;;;;5052000;28;20198;-72
2021/05/09 04:05:51;;;;;;;3.23;2.47;;;7.80;99.90;;;;;;5049935;28;20184;-73
2021/05/09 04:08:18;;;;;;;3.00;2.80;;;7.90;99.90;;;;;;5051982;28;20491;-73
2021/05/09 04:10:43;;;;;;;3.03;2.83;;;7.90;99.90;;;;;;5051610;28;20429;-72
2021/05/09 04:13:09;;;;;;;3.20;2.90;;;7.90;99.90;;;;;;5052078;28;20830;-72
2021/05/09 04:15:35;;;;;;;3.00;2.80;;;7.90;99.90;;;;;;5050838;28;20191;-74
2021/05/09 04:18:00;;;;;;;3.47;3.27;;;8.00;99.90;;;;;;5051987;28;20240;-73
2021/05/09 04:20:26;;;;;;;3.20;2.90;;;8.00;99.90;;;;;;5051428;28;20672;-72
2021/05/09 04:22:51;;;;;;;4.60;3.33;;;8.00;99.90;;;;;;5051787;28;20562;-74
2021/05/09 04:25:17;;;;;;;2.70;2.50;;;8.10;99.90;;;;;;5051583;28;20178;-71
2021/05/09 04:27:42;;;;;;;3.13;2.83;;;8.20;99.90;;;;;;5051422;28;20642;-72
2021/05/09 04:30:08;;;;;;;4.93;3.03;;;8.30;99.90;;;;;;5051615;28;20786;-73
2021/05/09 04:32:34;;;;;;;3.70;3.00;;;8.40;99.90;;;;;;5051332;28;20198;-73
2021/05/09 04:34:59;;;;;;;3.50;3.20;;;8.50;99.90;;;;;;5051416;28;20921;-72
2021/05/09 04:37:25;;;;;;;2.87;2.67;;;8.60;99.90;;;;;;5051050;28;20184;-73
2021/05/09 04:39:50;;;;;;;4.77;3.07;;;8.70;99.90;;;;;;5051246;28;20194;-73
2021/05/09 04:42:16;;;;;;;4.30;3.23;;;8.90;99.90;;;;;;5051410;28;20208;-72
2021/05/09 04:44:41;;;;;;;3.43;3.03;;;9.00;99.90;;;;;;5051074;28;20197;-70
2021/05/09 04:47:07;;;;;;;3.73;3.00;;;9.10;99.90;;;;;;5051109;28;20265;-72
2021/05/09 04:49:32;;;;;;;3.17;2.97;;;9.30;99.90;;;;;;5046921;28;20222;-72
2021/05/09 04:51:58;;;;;;;4.20;3.73;;;9.40;99.90;;;;;;5051255;28;20258;-72
2021/05/09 04:54:25;;;;;;;3.07;2.87;;;9.50;99.90;;;;;;5050897;28;20182;-73
2021/05/09 04:56:51;;;;;;;5.40;2.70;;;9.50;99.90;;;;;;5051084;28;20604;-72
2021/05/09 04:59:16;;;;;;;3.40;3.10;;;9.70;99.90;;;;;;5050802;28;20524;-72
2021/05/09 05:01:42;;;;;;;2.90;2.70;;;9.70;99.90;;;;;;5050957;28;20203;-72
2021/05/09 05:04:07;;;;;;;3.70;3.40;;;9.80;99.90;;;;;;5050928;28;20191;-73
2021/05/09 05:06:33;;;;;;;3.37;3.17;;;10.00;99.90;;;;;;5050488;28;20605;-72
2021/05/09 05:08:58;;;;;;;2.90;2.70;;;10.20;99.90;;;;;;5050924;28;20208;-73
2021/05/09 05:11:24;;;;;;;5.50;2.87;;;10.40;99.90;;;;;;5050515;28;20208;-73
2021/05/09 05:13:49;;;;;;;3.20;2.90;;;10.60;99.90;;;;;;5051096;28;20186;-73
2021/05/09 05:16:15;;;;;;;3.97;3.10;;;10.90;99.90;;;;;;5050380;28;20193;-72
2021/05/09 05:18:41;;;;;;;5.47;3.07;;;11.30;99.90;;;;;;5050860;28;20189;-72
2021/05/09 05:21:07;;;;;;;7.00;3.80;;;11.60;99.90;;;;;;5050501;28;20523;-73
2021/05/09 05:23:34;;;;;;;3.70;2.53;;;12.00;99.90;;;;;;5050786;28;20243;-73
2021/05/09 05:26:00;;;;;;;4.23;3.27;;;12.10;99.90;;;;;;5049840;28;20178;-72
2021/05/09 05:28:26;;;;;;;3.30;2.83;;;12.30;99.90;;;;;;5050015;28;20809;-73
2021/05/09 05:30:52;;;;;;;3.47;3.17;;;12.50;99.90;;;;;;5050041;28;20173;-74
2021/05/09 05:33:32;;;;;;;3.80;2.43;;;13.60;99.90;;;;;;5049945;28;20205;-73
2021/05/09 05:35:59;;;;;;;5.20;3.50;;;14.80;99.90;;;;;;5049083;28;20440;-73
2021/05/09 05:38:25;;;;;;;3.70;3.00;;;16.20;99.90;;;;;;5050487;28;20446;-73
2021/05/09 05:40:54;;;;;;;4.50;3.50;;;18.20;99.90;;;;;;5050494;28;20431;-72
2021/05/09 05:43:24;;;;;;;7.67;3.60;;;20.10;99.90;;;;;;5050530;28;20526;-72
2021/05/09 05:45:53;;;;;;;6.70;3.30;;;21.40;99.90;;;;;;5048952;28;20842;-74
2021/05/09 05:48:20;;;;;;;3.70;3.07;;;22.30;99.90;;;;;;5031038;28;20487;-74
2021/05/09 05:50:46;;;;;;;6.03;2.87;;;23.00;99.90;;;;;;5051024;28;20788;-73
2021/05/09 05:53:15;;;;;;;2.47;2.27;;;23.20;99.90;;;;;;5050443;28;20432;-74
2021/05/09 05:55:40;;;;;;;4.43;2.97;;;23.30;99.90;;;;;;5049974;28;20798;-73
2021/05/09 05:58:06;;;;;;;4.43;2.93;;;23.30;99.90;;;;;;5049705;28;20419;-74
2021/05/09 06:00:31;;;;;;;3.00;2.57;;;23.60;99.90;;;;;;5049466;28;20183;-75
2021/05/09 06:02:57;;;;;;;2.77;2.57;;;23.30;99.90;;;;;;5050054;28;21530;-74
2021/05/09 06:05:22;;;;;;;3.07;2.80;;;22.60;99.90;;;;;;5050229;28;20559;-74
2021/05/09 06:07:48;;;;;;;2.60;2.50;;;21.90;99.90;;;;;;5051356;28;20250;-74
2021/05/09 06:10:14;;;;;;;4.03;2.70;;;21.60;99.90;;;;;;5048642;28;20185;-74
2021/05/09 06:12:40;;;;;;;4.20;2.23;;;21.30;99.90;;;;;;5042171;28;20209;-72
2021/05/09 06:15:06;;;;;;;3.93;2.50;;;20.90;99.90;;;;;;5047766;28;20495;-73
2021/05/09 06:17:31;;;;;;;5.43;2.20;;;20.90;99.90;;;;;;5045030;28;20181;-74
2021/05/09 06:19:57;;;;;;;2.10;1.60;;;20.80;99.90;;;;;;5048698;28;20424;-74
2021/05/09 06:22:22;;;;;;;1.90;1.80;;;20.70;99.90;;;;;;5048190;28;20234;-74
2021/05/09 06:24:48;;;;;;;2.30;2.20;;;20.80;99.90;;;;;;5048632;28;20772;-73
2021/05/09 06:27:13;;;;;;;1.63;1.53;;;20.90;99.90;;;;;;5031376;28;20288;-73
2021/05/09 06:29:39;;;;;;;8.83;1.90;;;21.10;99.90;;;;;;5048449;28;20242;-74
2021/05/09 06:32:04;;;;;;;2.90;2.00;;;21.20;99.90;;;;;;5051722;28;20610;-74
2021/05/09 06:34:30;;;;;;;1.73;1.63;;;21.20;99.90;;;;;;5046810;28;20251;-74
2021/05/09 06:36:55;;;;;;;2.50;2.17;;;21.10;99.90;;;;;;5047303;28;20185;-74
2021/05/09 06:39:26;;;;;;;2.20;1.77;;;21.10;99.90;;;;;;5055468;28;20180;-74
2021/05/09 06:41:52;;;;;;;2.10;1.57;;;21.00;99.90;;;;;;5052361;28;20590;-75
2021/05/09 06:44:18;;;;;;;5.80;1.87;;;21.30;99.90;;;;;;5052552;28;20419;-74
2021/05/09 06:46:43;;;;;;;1.90;1.80;;;21.30;99.90;;;;;;5049156;28;20427;-74
2021/05/09 06:49:09;;;;;;;1.80;1.63;;;21.40;99.90;;;;;;5055420;28;20660;-74
2021/05/09 06:51:34;;;;;;;2.30;2.10;;;21.50;99.90;;;;;;5051974;28;20283;-74
2021/05/09 06:54:00;;;;;;;2.60;2.40;;;21.60;99.90;;;;;;5052001;28;20177;-73
2021/05/09 06:56:27;;;;;;;2.27;1.87;;;21.60;99.90;;;;;;5052118;28;20195;-74
2021/05/09 06:58:52;;;;;;;5.53;2.23;;;21.60;99.90;;;;;;5049750;28;20181;-74
2021/05/09 07:01:18;;;;;;;4.40;2.00;;;21.40;99.90;;;;;;5052388;28;20432;-74
2021/05/09 07:03:43;;;;;;;1.93;1.40;;;21.90;99.90;;;;;;5051997;28;20181;-74
2021/05/09 07:06:09;;;;;;;2.47;1.57;;;21.80;99.90;;;;;;5052731;28;20181;-74
2021/05/09 07:08:34;;;;;;;2.20;1.50;;;21.90;99.90;;;;;;5053617;28;20209;-73
2021/05/09 07:11:01;;;;;;;4.17;2.03;;;22.00;99.90;;;;;;5052261;28;20176;-73
2021/05/09 07:13:27;;;;;;;2.77;1.90;;;22.30;99.90;;;;;;5041930;28;20165;-74
2021/05/09 07:15:53;;;;;;;2.13;1.93;;;22.30;99.90;;;;;;5046680;28;20799;-74
2021/05/09 07:18:21;;;;;;;2.30;1.87;;;22.50;99.90;;;;;;5050487;28;20649;-74
2021/05/09 07:20:54;;;;;;;3.20;1.70;;;22.90;99.90;;;;;;5047676;28;20512;-74
2021/05/09 07:23:19;;;;;;;3.27;1.70;;;23.10;99.90;;;;;;5049389;28;20443;-74
2021/05/09 07:25:45;;;;;;;2.13;1.90;;;23.00;99.90;;;;;;5050320;28;20454;-74
2021/05/09 07:28:13;;;;;;;2.40;2.00;;;23.20;99.90;;;;;;5050876;28;20284;-74
2021/05/09 07:30:40;;;;;;;1.63;1.53;;;23.20;99.90;;;;;;5052306;28;20191;-75
2021/05/09 07:33:43;;;;;;;2.20;1.63;;;23.50;99.90;;;;;;5941144;22;21271;-73
2021/05/09 07:36:09;;;;;;;1.40;1.30;;;23.60;99.90;;;;;;5025404;28;20589;-75
2021/05/09 07:38:35;;;;;;;6.17;1.60;;;23.70;99.90;;;;;;5075249;28;20530;-76
2021/05/09 07:41:01;;;;;;;1.57;1.30;;;24.00;99.90;;;;;;5072090;28;20177;-76
2021/05/09 07:43:27;;;;;;;3.47;2.00;;;24.20;99.90;;;;;;5071074;28;20200;-75
2021/05/09 07:45:53;;;;;;;2.37;1.50;;;24.50;99.90;;;;;;5054600;28;20454;-75
2021/05/09 07:48:18;;;;;;;2.80;2.00;;;24.60;99.90;;;;;;5072381;28;20498;-76
2021/05/09 07:50:44;;;;;;;3.33;2.07;;;24.40;99.90;;;;;;5070753;28;20196;-77
2021/05/09 07:53:13;;;;;;;1.90;1.80;;;24.40;99.90;;;;;;5072183;28;20258;-76
2021/05/09 07:55:39;;;;;;;2.80;1.60;;;24.50;99.90;;;;;;5071039;28;20493;-75
2021/05/09 07:58:15;;;;;;;1.60;1.50;;;24.60;99.90;;;;;;5072538;28;20268;-76
2021/05/09 08:00:41;;;;;;;1.87;1.20;;;25.20;99.90;;;;;;5072288;28;20180;-76
2021/05/09 08:03:07;;;;;;;3.53;1.40;;;25.50;99.90;;;;;;5071509;28;20460;-73
2021/05/09 08:05:32;;;;;;;2.70;1.63;;;25.70;99.90;;;;;;5064398;28;20184;-76
2021/05/09 08:07:58;;;;;;;2.10;1.30;;;25.90;99.90;;;;;;5071163;28;20204;-74
2021/05/09 08:10:25;;;;;;;2.30;1.63;;;26.10;99.90;;;;;;5071772;28;20290;-75
2021/05/09 08:12:52;;;;;;;1.80;1.57;;;26.10;99.90;;;;;;5070930;28;20619;-75
2021/05/09 08:15:19;;;;;;;1.77;1.67;;;26.10;99.90;;;;;;5071851;28;20419;-74
2021/05/09 08:17:48;;;;;;;1.33;1.23;;;26.50;99.90;;;;;;5070949;28;20921;-74
2021/05/09 08:20:14;;;;;;;3.33;1.40;;;26.60;99.90;;;;;;5071864;28;20484;-76
2021/05/09 08:22:40;;;;;;;1.40;1.30;;;26.70;99.30;;;;;;5071040;28;20816;-76
2021/05/09 08:25:07;;;;;;;1.20;1.10;;;27.00;99.30;;;;;;5070989;28;20443;-76
2021/05/09 08:27:34;;;;;;;1.77;1.67;;;27.40;98.10;;;;;;5071477;28;20196;-76
2021/05/09 08:30:01;;;;;;;1.53;1.33;;;27.40;97.60;;;;;;5053682;28;20419;-76
2021/05/09 08:32:27;;;;;;;1.20;1.10;;;27.40;96.90;;;;;;5071296;28;20417;-77
2021/05/09 08:34:54;;;;;;;1.20;1.10;;;27.30;97.60;;;;;;5070802;28;20450;-76
2021/05/09 08:37:20;;;;;;;2.50;1.70;;;27.60;96.40;;;;;;5053241;28;20921;-76
2021/05/09 08:39:45;;;;;;;1.60;1.50;;;28.30;97.30;;;;;;5047315;28;20431;-76
2021/05/09 08:42:15;;;;;;;1.70;1.27;;;28.30;95.90;;;;;;5067872;28;20430;-76
2021/05/09 08:44:44;;;;;;;1.03;1.03;;;28.60;96.70;;;;;;5065118;28;20212;-77
2021/05/09 08:47:10;;;;;;;1.93;1.30;;;28.90;94.40;;;;;;5071889;28;20493;-75
2021/05/09 08:49:40;;;;;;;2.07;1.03;;;29.10;94.70;;;;;;5071646;28;20431;-74
2021/05/09 08:52:07;;;;;;;1.13;1.03;;;29.60;94.10;;;;;;5062384;28;20424;-76
2021/05/09 08:54:33;;;;;;;1.30;1.17;;;30.10;93.20;;;;;;5074323;28;20451;-74
2021/05/09 08:56:58;;;;;;;3.10;1.40;;;29.70;92.70;;;;;;5072312;28;20419;-74
2021/05/09 08:59:24;;;;;;;3.77;1.27;;;29.90;92.50;;;;;;5075745;28;20212;-76
2021/05/09 09:01:49;;;;;;;2.10;1.17;;;29.90;94.60;;;;;;5075713;28;20183;-76
2021/05/09 09:04:15;;;;;;;1.33;0.90;;;30.20;91.70;;;;;;5070987;28;20189;-77
2021/05/09 09:06:44;;;;;;;3.30;1.50;;;30.60;92.00;;;;;;5069922;28;20176;-76
2021/05/09 09:09:23;;;;;;;1.47;1.37;;;30.80;92.10;;;;;;5063753;28;20234;-75
2021/05/09 09:11:57;;;;;;;1.30;1.20;;;31.20;90.20;;;;;;5067003;28;20488;-75
2021/05/09 09:14:27;;;;;;;4.57;1.33;;;31.10;90.00;;;;;;5067487;28;20442;-75
2021/05/09 09:17:28;;;;;;;1.30;1.20;;;30.90;89.60;;;;;;5067715;28;20446;-74
2021/05/09 09:20:15;;;;;;;1.30;1.20;;;30.70;90.30;;;;;;4988165;28;20572;-74
2021/05/09 09:23:03;;;;;;;1.53;1.07;;;30.60;90.40;;;;;;5059295;28;21372;-71
2021/05/09 09:25:33;;;;;;;1.10;1.10;;;30.90;90.10;;;;;;5072731;28;20430;-72
2021/05/09 09:28:00;;;;;;;1.30;0.90;;;31.20;87.10;;;;;;5074563;28;20495;-72
2021/05/09 09:30:29;;;;;;;1.77;1.27;;;31.50;87.30;;;;;;5069855;28;20423;-71
2021/05/09 09:33:15;;;;;;;1.53;1.43;;;31.80;86.80;;;;;;5070047;28;20415;-72
2021/05/09 09:35:43;;;;;;;3.50;1.10;;;31.90;86.40;;;;;;5070907;28;20442;-72
2021/05/09 09:38:28;;;;;;;3.87;1.00;;;32.20;85.40;;;;;;5072141;28;20848;-72
2021/05/09 09:41:09;;;;;;;1.30;1.20;;;31.80;87.00;;;;;;5069911;28;20956;-72
2021/05/09 09:43:35;;;;;;;1.77;1.10;;;32.40;84.80;;;;;;5065944;28;20519;-72
2021/05/09 09:46:00;;;;;;;1.70;1.17;;;33.10;82.40;;;;;;5051558;28;20418;-75
2021/05/09 09:48:40;;;;;;;2.20;1.40;;;33.30;78.10;;;;;;5069752;28;20200;-74
2021/05/09 09:51:08;;;;;;;1.53;1.20;;;33.30;77.00;;;;;;5066916;28;20218;-75
2021/05/09 09:53:33;;;;;;;1.40;1.30;;;32.90;76.00;;;;;;5051790;28;20537;-72
2021/05/09 09:56:07;;;;;;;1.33;0.80;;;33.20;72.90;;;;;;5067931;28;20506;-72
2021/05/09 09:58:45;;;;;;;1.43;0.90;;;33.20;73.50;;;;;;5066406;28;20302;-71
2021/05/09 10:01:12;;;;;;;0.97;0.70;;;32.90;72.10;;;;;;5069658;28;21039;-72
2021/05/09 10:03:38;;;;;;;1.20;0.70;;;32.60;66.70;;;;;;5051332;28;20498;-72
2021/05/09 10:06:05;;;;;;;0.90;0.67;;;32.60;65.80;;;;;;5070311;28;20488;-73
2021/05/09 10:08:33;;;;;;;1.13;0.93;;;33.20;70.00;;;;;;5029721;28;20467;-74
2021/05/09 10:11:01;;;;;;;2.77;0.80;;;33.30;64.70;;;;;;5051880;28;20435;-72
2021/05/09 10:13:27;;;;;;;14.70;11.20;;;32.90;66.70;;;;;;5050123;28;21274;-73
2021/05/09 10:15:53;;;;;;;1.23;0.97;;;32.90;65.50;;;;;;5074002;28;20414;-72
2021/05/09 10:18:21;;;;;;;1.20;0.90;;;32.90;65.60;;;;;;5074308;28;20498;-72
2021/05/09 10:20:47;;;;;;;0.97;0.87;;;32.50;64.30;;;;;;5073426;28;20430;-73
2021/05/09 10:23:12;;;;;;;2.70;1.50;;;32.30;63.90;;;;;;5072029;28;20474;-73
2021/05/09 10:25:58;;;;;;;2.73;1.00;;;32.50;65.10;;;;;;5073201;28;20431;-72
2021/05/09 10:28:26;;;;;;;2.33;0.90;;;33.00;65.40;;;;;;5072581;28;20211;-72
2021/05/09 10:30:56;;;;;;;0.90;0.70;;;33.00;63.60;;;;;;5072148;28;20538;-71
2021/05/09 10:33:43;;;;;;;0.90;0.63;;;32.70;62.80;;;;;;5071729;28;20960;-72
2021/05/09 10:36:15;;;;;;;1.43;1.07;;;32.80;61.40;;;;;;5066934;28;20477;-72
2021/05/09 10:39:07;;;;;;;2.70;1.10;;;32.60;64.00;;;;;;5071609;28;20518;-71
2021/05/09 10:41:53;;;;;;;1.00;0.60;;;33.00;60.60;;;;;;5069303;28;20497;-71
2021/05/09 10:44:37;;;;;;;0.80;0.73;;;32.60;60.70;;;;;;5059176;28;20442;-73
2021/05/09 10:47:05;;;;;;;1.10;1.00;;;31.90;61.90;;;;;;5069510;28;20870;-72
2021/05/09 10:49:30;;;;;;;15.93;11.80;;;31.80;60.50;;;;;;5073197;28;20788;-73
2021/05/09 10:51:56;;;;;;;1.27;0.77;;;32.20;61.50;;;;;;5077158;28;20434;-72
2021/05/09 10:54:24;;;;;;;4.40;0.80;;;32.30;60.70;;;;;;5075479;28;20669;-72
2021/05/09 10:56:52;;;;;;;5.97;4.20;;;32.20;61.30;;;;;;5073280;28;20181;-73
2021/05/09 10:59:18;;;;;;;2.50;0.90;;;32.50;61.00;;;;;;5073129;28;20422;-72
2021/05/09 11:01:44;;;;;;;4.10;0.70;;;32.10;62.80;;;;;;5055638;28;20451;-72
2021/05/09 11:04:14;;;;;;;1.07;0.80;;;31.90;59.60;;;;;;5073280;28;20961;-72
2021/05/09 11:06:48;;;;;;;2.63;1.70;;;32.00;62.80;;;;;;5072207;28;20235;-73
2021/05/09 11:09:15;;;;;;;1.33;0.80;;;31.80;61.40;;;;;;5073021;28;20538;-73
2021/05/09 11:11:40;;;;;;;1.53;0.83;;;32.00;65.20;;;;;;5072213;28;20423;-73
2021/05/09 11:14:10;;;;;;;1.17;0.97;;;32.00;62.60;;;;;;5072664;28;20435;-72
2021/05/09 11:16:55;;;;;;;8.83;0.97;;;31.80;62.10;;;;;;5072908;28;20230;-71
2021/05/09 11:19:24;;;;;;;10.07;7.90;;;31.80;62.30;;;;;;5073405;28;20407;-72
2021/05/09 11:21:51;;;;;;;1.73;0.80;;;31.90;64.60;;;;;;5072768;28;20431;-71
2021/05/09 11:24:30;;;;;;;0.97;0.70;;;31.80;60.70;;;;;;5072096;28;20450;-71
2021/05/09 11:27:03;;;;;;;0.80;0.70;;;31.60;60.10;;;;;;5072450;28;20426;-72
2021/05/09 11:29:29;;;;;;;1.30;1.20;;;31.50;60.20;;;;;;5072420;28;20430;-72
2021/05/09 11:32:04;;;;;;;3.70;0.90;;;31.10;59.10;;;;;;5068496;28;20427;-74
2021/05/09 11:34:29;;;;;;;0.90;0.80;;;31.00;60.90;;;;;;5069079;28;20192;-74
2021/05/09 11:36:57;;;;;;;1.63;0.80;;;31.00;59.90;;;;;;5072101;28;20951;-74
2021/05/09 11:39:28;;;;;;;4.20;0.90;;;30.90;61.20;;;;;;5072001;28;20175;-74
2021/05/09 11:41:59;;;;;;;1.60;0.80;;;30.90;62.20;;;;;;5072308;28;20418;-75
2021/05/09 11:44:28;;;;;;;3.43;0.70;;;31.00;63.80;;;;;;5071797;28;20536;-75
2021/05/09 11:46:55;;;;;;;3.20;0.70;;;31.30;59.70;;;;;;5071865;28;20419;-74
2021/05/09 11:49:22;;;;;;;1.37;0.97;;;31.40;61.40;;;;;;5069986;28;20411;-74
2021/05/09 11:51:55;;;;;;;1.10;0.70;;;31.60;63.60;;;;;;5069634;28;20522;-74
2021/05/09 11:54:22;;;;;;;0.80;0.80;;;31.90;59.70;;;;;;5070428;28;20960;-74
2021/05/09 11:56:56;;;;;;;2.30;0.73;;;32.00;59.70;;;;;;5072165;28;20427;-74
2021/05/09 11:59:38;;;;;;;0.80;0.80;;;31.80;59.60;;;;;;5072429;28;20581;-74
2021/05/09 12:02:28;;;;;;;1.70;0.77;;;31.50;59.60;;;;;;5069250;28;20407;-73
2021/05/09 12:04:58;;;;;;;2.10;0.90;;;31.30;60.50;;;;;;5072182;28;20431;-74
2021/05/09 12:07:33;;;;;;;0.90;0.80;;;31.20;58.80;;;;;;5072449;28;20990;-71
2021/05/09 12:10:06;;;;;;;1.20;0.70;;;31.30;58.90;;;;;;5072591;28;20415;-73
2021/05/09 12:12:33;;;;;;;1.40;0.90;;;31.30;60.10;;;;;;5069036;28;20418;-73
2021/05/09 12:15:04;;;;;;;1.00;0.80;;;31.40;62.80;;;;;;5068173;28;20441;-73
2021/05/09 12:17:29;;;;;;;1.10;1.00;;;31.50;60.00;;;;;;5068814;28;20480;-74
2021/05/09 12:19:56;;;;;;;1.10;0.70;;;31.40;58.90;;;;;;5072140;28;20434;-73
2021/05/09 12:22:22;;;;;;;1.27;1.00;;;31.40;58.80;;;;;;5054355;28;20189;-73
2021/05/09 12:24:56;;;;;;;1.13;0.80;;;31.30;61.00;;;;;;5071691;28;20443;-73
2021/05/09 12:27:26;;;;;;;0.87;0.87;;;31.30;62.40;;;;;;5053770;28;20473;-73
2021/05/09 12:29:57;;;;;;;1.87;0.90;;;31.30;60.90;;;;;;5054096;28;20431;-73
2021/05/09 12:32:31;;;;;;;0.80;0.80;;;31.30;62.30;;;;;;5071836;28;20492;-73
2021/05/09 12:35:11;;;;;;;0.67;0.60;;;31.40;61.70;;;;;;5071528;28;20847;-73
2021/05/09 12:37:58;;;;;;;0.77;0.70;;;31.50;62.50;;;;;;5068759;28;20487;-73
2021/05/09 12:40:32;;;;;;;2.00;0.80;;;31.40;62.70;;;;;;5072000;28;20854;-73
2021/05/09 12:43:08;;;;;;;1.07;0.87;;;31.30;59.70;;;;;;5067430;28;20520;-73
2021/05/09 12:45:52;;;;;;;1.27;0.60;;;31.30;62.00;;;;;;5068464;28;20414;-73
2021/05/09 12:48:21;;;;;;;3.27;0.80;;;31.40;63.00;;;;;;5071549;28;20842;-72
2021/05/09 12:50:48;;;;;;;0.80;0.70;;;31.20;59.30;;;;;;5071720;28;20419;-73
2021/05/09 12:53:39;;;;;;;0.97;0.97;;;31.10;59.20;;;;;;5071199;28;20445;-73
2021/05/09 12:56:27;;;;;;;1.17;0.70;;;31.00;58.70;;;;;;5062698;28;20580;-73